Time;durP1;ratioP1;P1;durP2;ratioP2;P2;SDS_P1;SDS_P2;PMS_P1;PMS_P2;Temp;Humidity;BMP_temperature;BMP_pressure;BME280_temperature;BME280_humidity;BME280_pressure;Samples;Min_cycle;Max_cycle;Signal;HPM_P1;HPM_P2
2023/05/02 00:02:05;;;;;;;;;;;;;;;14.29;100.00;99970.41;5017816;28;20417;-39
2023/05/02 00:04:30;;;;;;;;;;;;;;;14.85;100.00;100018.78;5017379;28;19925;-39
2023/05/02 00:06:55;;;;;;;;;;;;;;;14.25;100.00;99993.88;5017806;28;19917;-39
2023/05/02 00:09:20;;;;;;;;;;;;;;;14.42;100.00;100014.94;5018782;28;19975;-39
2023/05/02 00:11:45;;;;;;;;;;;;;;;14.38;100.00;100028.88;5017608;28;19925;-39
2023/05/02 00:14:11;;;;;;;;;;;;;;;14.42;100.00;100038.25;5017142;28;19921;-39
2023/05/02 00:16:36;;;;;;;;;;;;;;;14.16;100.00;100042.50;5017807;28;19921;-38
2023/05/02 00:19:02;;;;;;;;;;;;;;;14.68;100.00;100065.13;5018593;28;19921;-39
2023/05/02 00:21:28;;;;;;;;;;;;;;;14.39;100.00;100059.94;5019713;28;19921;-39
2023/05/02 00:23:55;;;;;;;;;;;;;;;14.08;100.00;100067.78;5017461;28;19944;-39
2023/05/02 00:26:20;;;;;;;;;;;;;;;14.43;100.00;100076.22;5016155;28;20051;-39
2023/05/02 00:28:46;;;;;;;;;;;;;;;14.18;100.00;100073.53;5017385;28;20337;-39
2023/05/02 00:31:11;;;;;;;;;;;;;;;14.16;100.00;100081.38;5020035;28;19924;-39
2023/05/02 00:33:36;;;;;;;;;;;;;;;13.99;100.00;100093.94;5016297;28;19917;-39
2023/05/02 00:36:01;;;;;;;;;;;;;;;14.29;100.00;100132.81;5017781;28;19921;-39
2023/05/02 00:38:27;;;;;;;;;;;;;;;13.95;100.00;100120.81;5017558;28;19913;-39
2023/05/02 00:40:52;;;;;;;;;;;;;;;14.09;100.00;100151.50;5020760;28;20063;-39
2023/05/02 00:43:17;;;;;;;;;;;;;;;14.15;100.00;100162.56;5025337;28;19920;-39
2023/05/02 00:45:43;;;;;;;;;;;;;;;13.99;100.00;100156.94;5018013;28;20072;-39
2023/05/02 00:48:08;;;;;;;;;;;;;;;13.77;100.00;100161.84;5017638;28;19921;-39
2023/05/02 00:50:40;;;;;;;;;;;;;;;14.06;100.00;100183.53;5017658;28;20002;-39
2023/05/02 00:53:06;;;;;;;;;;;;;;;13.51;100.00;100187.56;5017888;28;20374;-39
2023/05/02 00:55:32;;;;;;;;;;;;;;;14.25;100.00;100220.13;5021634;28;19917;-39
2023/05/02 00:57:58;;;;;;;;;;;;;;;14.09;100.00;100203.31;5021608;28;19920;-39
2023/05/02 01:00:24;;;;;;;;;;;;;;;14.16;100.00;100231.63;5020829;28;19925;-39
2023/05/02 01:02:55;;;;;;;;;;;;;;;13.86;100.00;100215.13;5020889;28;19928;-39
2023/05/02 01:05:22;;;;;;;;;;;;;;;13.60;100.00;100229.59;5021782;28;19921;-39
2023/05/02 01:07:47;;;;;;;;;;;;;;;13.51;100.00;100257.44;5003358;28;19921;-39
2023/05/02 01:10:18;;;;;;;;;;;;;;;13.77;100.00;100280.94;5019471;28;20099;-39
2023/05/02 01:13:02;;;;;;;;;;;;;;;13.79;100.00;100297.28;5019204;28;19925;-39
2023/05/02 01:15:28;;;;;;;;;;;;;;;13.76;100.00;100320.69;5015656;28;20196;-39
2023/05/02 01:17:53;;;;;;;;;;;;;;;13.41;100.00;100339.63;5018472;28;20396;-39
2023/05/02 01:20:20;;;;;;;;;;;;;;;13.26;100.00;100382.16;5021253;28;19920;-39
2023/05/02 01:22:45;;;;;;;;;;;;;;;13.45;100.00;100412.84;5015075;28;19925;-39
2023/05/02 01:25:22;;;;;;;;;;;;;;;13.60;100.00;100438.41;5019918;28;20191;-39
2023/05/02 01:27:50;;;;;;;;;;;;;;;13.31;100.00;100445.03;5013695;28;19917;-39
2023/05/02 01:30:16;;;;;;;;;;;;;;;13.10;100.00;100466.13;5019018;28;19948;-39
2023/05/02 01:32:42;;;;;;;;;;;;;;;13.52;100.00;100507.59;5017583;28;20028;-39
2023/05/02 01:35:08;;;;;;;;;;;;;;;13.62;100.00;100532.44;5017321;28;20381;-39
2023/05/02 01:37:33;;;;;;;;;;;;;;;13.54;100.00;100539.47;5016154;28;19948;-39
2023/05/02 01:39:58;;;;;;;;;;;;;;;13.46;100.00;100555.16;5017950;28;19924;-39
2023/05/02 01:42:23;;;;;;;;;;;;;;;13.57;100.00;100567.88;5014817;28;19971;-39
2023/05/02 01:44:49;;;;;;;;;;;;;;;13.65;100.00;100594.50;5017210;28;19928;-39
2023/05/02 01:47:14;;;;;;;;;;;;;;;12.90;100.00;100573.34;5019821;28;20032;-39
2023/05/02 01:49:39;;;;;;;;;;;;;;;12.93;100.00;100600.88;5000534;28;19988;-39
2023/05/02 01:52:06;;;;;;;;;;;;;;;13.37;100.00;100644.16;5015172;28;20016;-39
2023/05/02 01:54:32;;;;;;;;;;;;;;;13.50;100.00;100659.47;5016147;28;19921;-39
2023/05/02 01:56:57;;;;;;;;;;;;;;;13.08;100.00;100656.69;5018236;28;19917;-39
2023/05/02 01:59:22;;;;;;;;;;;;;;;13.44;100.00;100681.16;5018584;28;19917;-39
2023/05/02 02:01:49;;;;;;;;;;;;;;;13.62;100.00;100699.84;4998542;28;19925;-39
2023/05/02 02:04:15;;;;;;;;;;;;;;;13.51;100.00;100687.09;5014342;28;20156;-39
2023/05/02 02:06:42;;;;;;;;;;;;;;;14.12;100.00;100692.88;5028886;28;20001;-39
2023/05/02 02:09:07;;;;;;;;;;;;;;;13.92;100.00;100667.34;5017064;28;20333;-39
2023/05/02 02:11:36;;;;;;;;;;;;;;;13.92;100.00;100657.00;5013818;28;20260;-39
2023/05/02 02:14:06;;;;;;;;;;;;;;;13.29;100.00;100622.72;5014020;28;20044;-39
2023/05/02 02:16:32;;;;;;;;;;;;;;;13.16;100.00;100654.84;4999053;28;19921;-39
2023/05/02 02:18:58;;;;;;;;;;;;;;;12.96;100.00;100679.28;5017237;28;19976;-39
2023/05/02 02:21:25;;;;;;;;;;;;;;;13.08;100.00;100719.63;5014664;28;19925;-39
2023/05/02 02:23:50;;;;;;;;;;;;;;;13.07;100.00;100742.91;5000041;28;20488;-39
2023/05/02 02:26:16;;;;;;;;;;;;;;;13.13;100.00;100768.69;5015723;28;19920;-39
2023/05/02 02:28:42;;;;;;;;;;;;;;;13.39;100.00;100797.69;5015699;28;20140;-39
2023/05/02 02:31:07;;;;;;;;;;;;;;;13.12;100.00;100787.69;5010362;28;19921;-39
2023/05/02 02:33:32;;;;;;;;;;;;;;;13.17;100.00;100807.44;5017093;28;20415;-39
2023/05/02 02:36:00;;;;;;;;;;;;;;;13.15;100.00;100821.28;5016573;28;20393;-39
2023/05/02 02:38:27;;;;;;;;;;;;;;;13.27;100.00;100846.13;5017022;28;19927;-39
2023/05/02 02:40:54;;;;;;;;;;;;;;;12.55;100.00;100828.03;5004271;28;19925;-39
2023/05/02 02:43:45;;;;;;;;;;;;;;;12.23;96.04;100848.19;5016499;28;19917;-39
2023/05/02 02:46:14;;;;;;;;;;;;;;;12.25;85.62;100905.84;5014031;28;20171;-39
2023/05/02 02:48:49;;;;;;;;;;;;;;;12.16;81.65;100952.38;5011764;28;19928;-39
2023/05/02 02:51:33;;;;;;;;;;;;;;;12.11;79.17;101001.50;5015688;28;20488;-39
2023/05/02 02:54:19;;;;;;;;;;;;;;;12.18;77.43;101048.81;5015575;28;19917;-39
2023/05/02 02:56:45;;;;;;;;;;;;;;;11.89;75.83;101068.75;5013535;28;20384;-39
2023/05/02 02:59:15;;;;;;;;;;;;;;;11.77;75.02;101110.09;5012423;28;20353;-39
2023/05/02 03:01:42;;;;;;;;;;;;;;;11.94;72.78;101159.09;5012877;28;19927;-39
2023/05/02 03:04:07;;;;;;;;;;;;;;;11.88;72.21;101190.09;5015292;28;20011;-39
2023/05/02 03:06:33;;;;;;;;;;;;;;;11.81;71.83;101235.69;5015395;28;19960;-39
2023/05/02 03:08:58;;;;;;;;;;;;;;;11.89;69.69;101277.03;5013015;28;20329;-39
2023/05/02 03:11:23;;;;;;;;;;;;;;;11.88;71.20;101311.44;5015949;28;20012;-39
2023/05/02 03:13:48;;;;;;;;;;;;;;;12.00;70.82;101350.19;5016603;28;20016;-39
2023/05/02 03:16:32;;;;;;;;;;;;;;;11.81;72.98;101359.59;5015615;28;19988;-39
2023/05/02 03:18:57;;;;;;;;;;;;;;;12.13;72.65;101402.69;5016121;28;19928;-39
2023/05/02 03:21:23;;;;;;;;;;;;;;;12.21;74.42;101425.97;5019283;28;19925;-39
2023/05/02 03:23:48;;;;;;;;;;;;;;;12.44;74.71;101441.47;5017054;28;19921;-39
2023/05/02 03:26:13;;;;;;;;;;;;;;;12.54;75.22;101467.31;5013557;28;20437;-39
2023/05/02 03:28:38;;;;;;;;;;;;;;;12.62;76.04;101458.69;5013593;28;19947;-40
2023/05/02 03:31:04;;;;;;;;;;;;;;;12.27;77.14;101433.69;4996962;28;20089;-39
2023/05/02 03:33:29;;;;;;;;;;;;;;;12.41;76.95;101451.81;5018399;28;19921;-39
2023/05/02 03:35:54;;;;;;;;;;;;;;;11.69;78.39;101417.25;5015656;28;20392;-39
2023/05/02 03:38:19;;;;;;;;;;;;;;;12.36;75.58;101487.97;5015325;28;19921;-39
2023/05/02 03:40:45;;;;;;;;;;;;;;;12.42;77.38;101498.31;5022719;28;20305;-39
2023/05/02 03:43:10;;;;;;;;;;;;;;;12.43;77.34;101489.72;5014371;28;20016;-39
2023/05/02 03:45:35;;;;;;;;;;;;;;;12.51;77.77;101487.13;5014697;28;21524;-39
2023/05/02 03:48:01;;;;;;;;;;;;;;;12.65;77.66;101494.88;5015813;28;19924;-39
2023/05/02 03:50:26;;;;;;;;;;;;;;;12.72;78.20;101488.81;5016243;28;20388;-39
2023/05/02 03:52:51;;;;;;;;;;;;;;;12.50;78.30;101468.16;5014800;28;19963;-39
2023/05/02 03:55:17;;;;;;;;;;;;;;;13.05;76.97;101500.00;5015066;28;20413;-39
2023/05/02 03:57:42;;;;;;;;;;;;;;;12.84;78.63;101462.97;5017929;28;19943;-39
2023/05/02 04:00:07;;;;;;;;;;;;;;;12.77;77.53;101463.81;5014805;28;20037;-39
2023/05/02 04:02:33;;;;;;;;;;;;;;;13.06;80.35;101440.47;5016089;28;20227;-39
2023/05/02 04:04:58;;;;;;;;;;;;;;;12.93;80.93;101402.56;5015155;28;19921;-39
2023/05/02 04:07:24;;;;;;;;;;;;;;;12.96;79.77;101402.59;5014945;28;19975;-39
2023/05/02 04:09:50;;;;;;;;;;;;;;;12.77;80.63;101389.72;5014859;28;19995;-40
2023/05/02 04:12:15;;;;;;;;;;;;;;;12.69;79.49;101385.41;5011217;28;19972;-40
2023/05/02 04:14:40;;;;;;;;;;;;;;;12.69;77.57;101398.34;5013485;28;19960;-40
2023/05/02 04:17:05;;;;;;;;;;;;;;;12.79;79.29;101404.34;5014876;28;20356;-40
2023/05/02 04:19:31;;;;;;;;;;;;;;;12.81;77.85;101418.13;5020145;28;19921;-40
2023/05/02 04:21:56;;;;;;;;;;;;;;;12.55;78.84;101416.47;5015691;28;19932;-39
2023/05/02 04:24:21;;;;;;;;;;;;;;;12.96;77.57;101434.47;5015506;28;20188;-40
2023/05/02 04:26:47;;;;;;;;;;;;;;;13.07;77.48;101433.56;5011334;28;19932;-40
2023/05/02 04:29:13;;;;;;;;;;;;;;;12.61;79.08;101405.25;5016814;28;19917;-40
2023/05/02 04:31:38;;;;;;;;;;;;;;;12.72;78.44;101419.00;5020162;28;19975;-39
2023/05/02 04:34:03;;;;;;;;;;;;;;;12.91;76.75;101432.78;5029706;28;19975;-39
2023/05/02 04:36:29;;;;;;;;;;;;;;;12.45;76.38;101425.09;5023081;28;20389;-39
2023/05/02 04:38:54;;;;;;;;;;;;;;;12.65;76.86;101448.34;5021716;28;20679;-39
2023/05/02 04:41:20;;;;;;;;;;;;;;;12.52;76.14;101452.63;5017179;28;20366;-39
2023/05/02 04:43:45;;;;;;;;;;;;;;;12.80;75.47;101483.66;5017762;28;20089;-40
2023/05/02 04:46:10;;;;;;;;;;;;;;;12.33;76.99;101469.88;5018631;28;20368;-40
2023/05/02 04:48:36;;;;;;;;;;;;;;;12.33;75.95;101480.22;5022462;28;20360;-40
2023/05/02 04:51:01;;;;;;;;;;;;;;;12.65;74.83;101521.56;5018345;28;19948;-40
2023/05/02 04:53:27;;;;;;;;;;;;;;;12.31;75.43;101510.34;4999333;28;19992;-39
2023/05/02 04:55:52;;;;;;;;;;;;;;;12.30;74.75;101519.84;5017365;28;20424;-40
2023/05/02 04:58:17;;;;;;;;;;;;;;;11.93;73.97;101524.06;5018041;28;20358;-39
2023/05/02 05:00:43;;;;;;;;;;;;;;;11.78;73.20;101550.66;5021060;28;20401;-40
2023/05/02 05:03:08;;;;;;;;;;;;;;;11.90;72.04;101586.03;5016880;28;20366;-40
2023/05/02 05:05:33;;;;;;;;;;;;;;;12.03;71.09;101613.63;5019073;28;19921;-40
2023/05/02 05:07:59;;;;;;;;;;;;;;;11.95;73.08;101630.81;5025214;28;19927;-40
2023/05/02 05:10:25;;;;;;;;;;;;;;;11.73;71.84;101646.16;5017843;28;20012;-40
2023/05/02 05:12:50;;;;;;;;;;;;;;;12.03;70.77;101685.94;5016291;28;19921;-39
2023/05/02 05:15:15;;;;;;;;;;;;;;;12.21;71.70;101725.66;5019482;28;19921;-40
2023/05/02 05:17:41;;;;;;;;;;;;;;;11.87;73.37;101725.41;5016036;28;20289;-39
2023/05/02 05:20:07;;;;;;;;;;;;;;;12.12;74.37;101760.03;5017913;28;20453;-39
2023/05/02 05:22:37;;;;;;;;;;;;;;;11.88;76.99;101781.41;5017123;28;19921;-39
2023/05/02 05:25:02;;;;;;;;;;;;;;;11.84;78.34;101796.00;5017627;28;19921;-39
2023/05/02 05:27:27;;;;;;;;;;;;;;;12.03;79.01;101833.16;5017544;28;20352;-40
2023/05/02 05:29:53;;;;;;;;;;;;;;;11.87;81.85;101844.19;5018607;28;19921;-39
2023/05/02 05:32:18;;;;;;;;;;;;;;;11.98;82.55;101873.59;5016623;28;19947;-39
2023/05/02 05:34:43;;;;;;;;;;;;;;;12.21;84.25;101902.19;5017105;28;20225;-40
2023/05/02 05:37:08;;;;;;;;;;;;;;;11.96;85.25;101906.28;5018201;28;19921;-39
2023/05/02 05:39:34;;;;;;;;;;;;;;;12.59;83.94;101960.19;5017251;28;19923;-40
2023/05/02 05:41:59;;;;;;;;;;;;;;;12.31;86.28;101923.78;5016548;28;19917;-40
2023/05/02 05:44:24;;;;;;;;;;;;;;;12.30;85.75;101927.25;5024534;28;19924;-39
2023/05/02 05:46:50;;;;;;;;;;;;;;;12.25;85.31;101918.59;5015817;28;19928;-40
2023/05/02 05:49:15;;;;;;;;;;;;;;;12.10;85.51;101919.31;5016890;28;20566;-40
2023/05/02 05:51:40;;;;;;;;;;;;;;;12.42;85.70;101962.66;5016570;28;19917;-40
2023/05/02 05:54:06;;;;;;;;;;;;;;;12.28;86.59;101958.22;5018614;28;20496;-39
2023/05/02 05:56:31;;;;;;;;;;;;;;;12.34;85.53;101965.19;5018445;28;19921;-39
2023/05/02 05:58:56;;;;;;;;;;;;;;;12.70;85.42;101995.63;5019699;28;19931;-39
2023/05/02 06:01:22;;;;;;;;;;;;;;;12.58;86.17;101973.97;5026570;28;19952;-39
2023/05/02 06:03:47;;;;;;;;;;;;;;;12.15;86.12;101943.47;5019766;28;19921;-39
2023/05/02 06:06:12;;;;;;;;;;;;;;;12.25;85.42;101965.13;5020369;28;20020;-39
2023/05/02 06:08:38;;;;;;;;;;;;;;;12.21;85.73;101960.75;5018456;28;20016;-39
2023/05/02 06:11:06;;;;;;;;;;;;;;;12.59;85.53;101988.63;5019995;28;20384;-39
2023/05/02 06:13:32;;;;;;;;;;;;;;;12.46;84.97;101980.78;5018606;28;20589;-39
2023/05/02 06:16:01;;;;;;;;;;;;;;;12.64;84.23;101994.72;5020311;28;19939;-39
2023/05/02 06:18:26;;;;;;;;;;;;;;;12.27;85.29;101974.59;5020052;28;19913;-39
2023/05/02 06:20:51;;;;;;;;;;;;;;;12.16;85.39;101981.41;5020788;28;19921;-39
2023/05/02 06:23:17;;;;;;;;;;;;;;;12.33;85.86;102015.13;5023093;28;19917;-39
2023/05/02 06:25:42;;;;;;;;;;;;;;;11.97;86.00;101998.41;5019183;28;19967;-40
2023/05/02 06:28:08;;;;;;;;;;;;;;;11.98;87.16;102028.56;5019724;28;19917;-40
2023/05/02 06:30:33;;;;;;;;;;;;;;;12.02;87.70;102053.59;5019315;28;19913;-40
2023/05/02 06:32:58;;;;;;;;;;;;;;;11.90;89.26;102076.66;5022864;28;20505;-40
2023/05/02 06:35:24;;;;;;;;;;;;;;;11.73;91.65;102091.94;5019469;28;19932;-40
2023/05/02 06:37:49;;;;;;;;;;;;;;;11.70;94.13;102116.00;5024240;28;19921;-40
2023/05/02 06:40:14;;;;;;;;;;;;;;;11.77;96.38;102162.53;5019150;28;19964;-40
2023/05/02 06:42:40;;;;;;;;;;;;;;;11.23;100.00;102157.47;5016673;28;19973;-40
2023/05/02 06:45:05;;;;;;;;;;;;;;;11.20;100.00;102201.28;5019189;28;19963;-40
2023/05/02 06:47:31;;;;;;;;;;;;;;;11.05;100.00;102237.13;5017418;28;19917;-40
2023/05/02 06:49:56;;;;;;;;;;;;;;;11.49;100.00;102333.38;5022982;28;19932;-40
2023/05/02 06:52:22;;;;;;;;;;;;;;;11.06;100.00;102326.53;5018804;28;19932;-40
2023/05/02 06:54:47;;;;;;;;;;;;;;;11.52;100.00;102386.78;5022602;28;19926;-40
2023/05/02 06:57:12;;;;;;;;;;;;;;;11.87;100.00;102433.00;5025354;28;19921;-40
2023/05/02 06:59:37;;;;;;;;;;;;;;;11.93;100.00;102415.06;5020802;28;19932;-40
2023/05/02 07:02:02;;;;;;;;;;;;;;;11.71;100.00;102393.97;5017896;28;19929;-40
2023/05/02 07:04:28;;;;;;;;;;;;;;;11.32;100.00;102354.56;5018653;28;19943;-40
2023/05/02 07:06:53;;;;;;;;;;;;;;;11.82;100.00;102411.41;5018648;28;19925;-40
2023/05/02 07:09:18;;;;;;;;;;;;;;;11.60;100.00;102377.44;5019672;28;19939;-40
2023/05/02 07:11:43;;;;;;;;;;;;;;;11.70;100.00;102381.94;5019569;28;19921;-40
2023/05/02 07:14:09;;;;;;;;;;;;;;;11.58;100.00;102373.09;5023934;28;19916;-40
2023/05/02 07:16:34;;;;;;;;;;;;;;;11.78;100.00;102386.34;5021167;28;19917;-40
2023/05/02 07:19:00;;;;;;;;;;;;;;;11.53;100.00;102380.75;5024082;28;19921;-39
2023/05/02 07:21:25;;;;;;;;;;;;;;;11.88;100.00;102414.09;5018874;28;20400;-40
2023/05/02 07:23:50;;;;;;;;;;;;;;;11.84;100.00;102408.00;5017623;28;19960;-40
2023/05/02 07:26:17;;;;;;;;;;;;;;;12.05;100.00;102414.41;5018724;28;19921;-40
2023/05/02 07:28:43;;;;;;;;;;;;;;;12.06;100.00;102411.81;5018536;28;20012;-40
2023/05/02 07:31:08;;;;;;;;;;;;;;;11.79;100.00;102373.47;5018645;28;20861;-40
2023/05/02 07:33:33;;;;;;;;;;;;;;;11.84;100.00;102363.22;5017725;28;19921;-40
2023/05/02 07:36:00;;;;;;;;;;;;;;;12.14;100.00;102388.72;5025684;28;19963;-40
2023/05/02 07:38:26;;;;;;;;;;;;;;;12.04;100.00;102369.63;5021294;28;19923;-40
2023/05/02 07:40:51;;;;;;;;;;;;;;;12.10;100.00;102353.34;5018436;28;19971;-40
2023/05/02 07:43:16;;;;;;;;;;;;;;;12.11;100.00;102340.47;5017475;28;20357;-40
2023/05/02 07:45:42;;;;;;;;;;;;;;;12.03;100.00;102323.09;5018210;28;19936;-40
2023/05/02 07:48:07;;;;;;;;;;;;;;;11.93;100.00;102306.59;5016074;28;19916;-40
2023/05/02 07:50:32;;;;;;;;;;;;;;;12.10;100.00;102318.03;5018219;28;19923;-40
2023/05/02 07:52:57;;;;;;;;;;;;;;;11.99;97.88;102282.56;5017174;28;20016;-40
2023/05/02 07:55:25;;;;;;;;;;;;;;;11.94;97.18;102279.91;5017312;28;20259;-40
2023/05/02 07:57:50;;;;;;;;;;;;;;;11.91;95.98;102264.38;5017826;28;19923;-40
2023/05/02 08:00:16;;;;;;;;;;;;;;;12.22;95.20;102290.63;5018177;28;20324;-40
2023/05/02 08:02:41;;;;;;;;;;;;;;;12.34;93.24;102271.00;5016923;28;20577;-40
2023/05/02 08:05:07;;;;;;;;;;;;;;;12.96;91.02;102303.66;5017756;28;19917;-40
2023/05/02 08:07:34;;;;;;;;;;;;;;;12.54;90.07;102236.78;5019418;28;19959;-40
2023/05/02 08:09:59;;;;;;;;;;;;;;;12.18;87.50;102188.09;5016698;28;20012;-40
2023/05/02 08:12:24;;;;;;;;;;;;;;;12.11;86.60;102172.53;5017246;28;20031;-40
2023/05/02 08:14:50;;;;;;;;;;;;;;;12.42;85.05;102185.81;5017751;28;19947;-40
2023/05/02 08:17:15;;;;;;;;;;;;;;;12.63;83.13;102199.81;5017840;28;20011;-40
2023/05/02 08:19:40;;;;;;;;;;;;;;;10.81;85.61;102065.66;5018249;28;19917;-39
2023/05/02 08:22:05;;;;;;;;;;;;;;;11.11;85.30;102136.63;5016639;28;19921;-39
2023/05/02 08:24:31;;;;;;;;;;;;;;;10.95;85.83;102152.66;5017624;28;19917;-39
2023/05/02 08:26:56;;;;;;;;;;;;;;;10.55;89.51;102160.56;5021331;28;19916;-39
2023/05/02 08:29:22;;;;;;;;;;;;;;;10.17;90.15;102157.19;5021987;28;19913;-39
2023/05/02 08:31:47;;;;;;;;;;;;;;;10.39;91.78;102213.50;5017291;28;19921;-40
2023/05/02 08:34:12;;;;;;;;;;;;;;;10.39;92.50;102222.94;5017163;28;19917;-40
2023/05/02 08:36:38;;;;;;;;;;;;;;;10.79;93.46;102283.91;5017405;28;19917;-39
2023/05/02 08:39:03;;;;;;;;;;;;;;;10.27;93.49;102239.00;5017982;28;19925;-39
2023/05/02 08:41:29;;;;;;;;;;;;;;;10.22;94.47;102268.94;5017454;28;19921;-40
2023/05/02 08:43:54;;;;;;;;;;;;;;;9.82;92.80;102258.59;5017251;28;20428;-40
2023/05/02 08:46:20;;;;;;;;;;;;;;;9.92;93.22;102271.66;5015541;28;19917;-40
2023/05/02 08:48:47;;;;;;;;;;;;;;;9.81;93.03;102258.56;5016129;28;19917;-39
2023/05/02 08:51:14;;;;;;;;;;;;;;;10.79;90.88;102316.56;5018160;28;20531;-39
2023/05/02 08:53:39;;;;;;;;;;;;;;;10.86;87.90;102288.34;5016988;28;19924;-39
2023/05/02 08:56:08;;;;;;;;;;;;;;;10.09;89.13;102195.69;5016446;28;20289;-39
2023/05/02 08:58:37;;;;;;;;;;;;;;;10.08;86.00;102181.09;5017567;28;20389;-40
2023/05/02 09:01:17;;;;;;;;;;;;;;;10.49;83.06;102200.81;5019037;28;19921;-39
2023/05/02 09:03:42;;;;;;;;;;;;;;;11.05;83.67;102180.38;5016788;28;19917;-39
2023/05/02 09:06:08;;;;;;;;;;;;;;;11.37;81.33;102137.03;5017590;28;19986;-39
2023/05/02 09:08:36;;;;;;;;;;;;;;;11.47;81.95;102086.41;5016981;28;20675;-39
2023/05/02 09:11:02;;;;;;;;;;;;;;;10.98;82.68;102000.59;5017399;28;19994;-39
2023/05/02 09:13:40;;;;;;;;;;;;;;;11.25;78.98;102018.19;5018052;28;19917;-39
2023/05/02 09:16:09;;;;;;;;;;;;;;;10.85;80.78;101976.34;5021377;28;19921;-39
2023/05/02 09:18:37;;;;;;;;;;;;;;;11.22;79.80;101982.88;5024361;28;20130;-39
2023/05/02 09:21:09;;;;;;;;;;;;;;;9.93;81.71;101893.28;5021229;28;19913;-39
2023/05/02 09:23:35;;;;;;;;;;;;;;;10.32;77.78;101964.34;5019950;28;19917;-39
2023/05/02 09:26:01;;;;;;;;;;;;;;;11.05;76.81;102010.16;5020881;28;19927;-39
2023/05/02 09:28:42;;;;;;;;;;;;;;;11.41;76.46;102025.28;5020751;28;19917;-39
2023/05/02 09:31:08;;;;;;;;;;;;;;;10.72;79.17;101959.84;5020791;28;19921;-39
2023/05/02 09:33:34;;;;;;;;;;;;;;;12.00;75.15;102024.28;5019817;28;20019;-40
2023/05/02 09:35:59;;;;;;;;;;;;;;;10.57;78.20;101918.38;5020511;28;20532;-40
2023/05/02 09:38:26;;;;;;;;;;;;;;;10.51;76.65;101946.59;5021082;28;19921;-39
2023/05/02 09:40:57;;;;;;;;;;;;;;;11.02;73.94;101998.09;5020559;28;19917;-40
2023/05/02 09:43:22;;;;;;;;;;;;;;;10.81;75.83;101992.59;5020205;28;19917;-39
2023/05/02 09:45:57;;;;;;;;;;;;;;;10.83;74.68;102008.97;5022246;28;20644;-39
2023/05/02 09:48:22;;;;;;;;;;;;;;;10.74;74.70;102025.19;5018983;28;20326;-39
2023/05/02 09:50:47;;;;;;;;;;;;;;;10.88;74.67;102049.47;5020050;28;19971;-39
2023/05/02 09:53:13;;;;;;;;;;;;;;;10.84;74.43;102057.13;5019494;28;19944;-39
2023/05/02 09:55:38;;;;;;;;;;;;;;;10.20;75.55;102025.94;5018602;28;19921;-39
2023/05/02 09:58:04;;;;;;;;;;;;;;;10.51;74.58;102058.28;5000712;28;20552;-39
2023/05/02 10:00:39;;;;;;;;;;;;;;;10.56;73.71;102074.69;5018921;28;19971;-40
2023/05/02 10:03:05;;;;;;;;;;;;;;;10.18;75.20;102061.94;5017792;28;19929;-39
2023/05/02 10:05:30;;;;;;;;;;;;;;;10.16;74.80;102080.78;5018963;28;19924;-39
2023/05/02 10:07:56;;;;;;;;;;;;;;;10.45;73.43;102113.16;5015644;28;19912;-39
2023/05/02 10:10:21;;;;;;;;;;;;;;;10.71;73.75;102133.38;5019070;28;20409;-39
2023/05/02 10:12:46;;;;;;;;;;;;;;;10.79;73.41;102133.53;5015311;28;20605;-39
2023/05/02 10:15:11;;;;;;;;;;;;;;;10.34;74.55;102112.09;5025328;28;19917;-39
2023/05/02 10:17:41;;;;;;;;;;;;;;;10.54;73.46;102125.34;5018207;28;19921;-40
2023/05/02 10:20:06;;;;;;;;;;;;;;;10.29;74.37;102124.00;5017525;28;19920;-39
2023/05/02 10:22:35;;;;;;;;;;;;;;;10.76;74.67;102141.19;5018834;28;19978;-39
2023/05/02 10:25:01;;;;;;;;;;;;;;;10.38;74.85;102119.03;5017382;28;19921;-40
2023/05/02 10:27:28;;;;;;;;;;;;;;;10.59;73.12;102138.31;5018715;28;19920;-39
2023/05/02 10:29:53;;;;;;;;;;;;;;;11.00;72.27;102171.69;5019573;28;20786;-39
2023/05/02 10:32:19;;;;;;;;;;;;;;;10.83;73.66;102133.59;5017224;28;19913;-40
2023/05/02 10:34:44;;;;;;;;;;;;;;;11.21;72.66;102133.34;5023643;28;19944;-39
2023/05/02 10:37:09;;;;;;;;;;;;;;;11.55;71.05;102149.34;5019198;28;19928;-39
2023/05/02 10:39:34;;;;;;;;;;;;;;;11.42;73.23;102111.28;5017211;28;19917;-39
2023/05/02 10:42:01;;;;;;;;;;;;;;;11.72;70.55;102118.59;5019623;28;20040;-40
2023/05/02 10:44:32;;;;;;;;;;;;;;;12.20;74.12;102096.84;5026380;28;19920;-40
2023/05/02 10:46:57;;;;;;;;;;;;;;;13.19;73.06;102081.31;5018820;28;19921;-39
2023/05/02 10:49:26;;;;;;;;;;;;;;;13.37;78.11;101995.19;5017964;28;19924;-39
2023/05/02 10:51:51;;;;;;;;;;;;;;;13.18;83.55;101894.97;5017502;28;19917;-45
2023/05/02 10:54:19;;;;;;;;;;;;;;;12.45;91.04;101786.91;5018640;28;19935;-39
2023/05/02 10:57:02;;;;;;;;;;;;;;;11.40;96.08;101695.81;5021000;28;20514;-40
2023/05/02 10:59:28;;;;;;;;;;;;;;;11.82;91.44;101721.94;5018828;28;20281;-40
2023/05/02 11:01:54;;;;;;;;;;;;;;;11.65;89.37;101720.09;5020272;28;19994;-40
2023/05/02 11:04:19;;;;;;;;;;;;;;;12.59;86.04;101776.63;5017132;28;19921;-40
2023/05/02 11:06:57;;;;;;;;;;;;;;;12.37;91.41;101722.28;5018821;28;19921;-39
2023/05/02 11:09:23;;;;;;;;;;;;;;;12.27;93.45;101684.31;5023481;28;20404;-40
2023/05/02 11:11:49;;;;;;;;;;;;;;;11.89;96.86;101641.13;5021808;28;19921;-41
2023/05/02 11:14:34;;;;;;;;;;;;;;;12.14;94.30;101640.38;5022599;28;19923;-41
2023/05/02 11:17:00;;;;;;;;;;;;;;;12.08;92.44;101642.91;5010793;28;19925;-41
2023/05/02 11:19:28;;;;;;;;;;;;;;;12.04;94.94;101625.69;5018353;28;19924;-41
2023/05/02 11:22:14;;;;;;;;;;;;;;;12.03;93.41;101629.13;5015384;28;19924;-40
2023/05/02 11:24:40;;;;;;;;;;;;;;;12.75;94.54;101641.41;5011492;28;19921;-41
2023/05/02 11:27:24;;;;;;;;;;;;;;;12.31;100.00;101557.72;5021111;28;20063;-41
2023/05/02 11:29:53;;;;;;;;;;;;;;;12.28;100.00;101544.81;5022223;28;19979;-41
2023/05/02 11:32:18;;;;;;;;;;;;;;;13.02;100.00;101528.44;5017814;28;19925;-41
2023/05/02 11:34:43;;;;;;;;;;;;;;;12.39;100.00;101425.97;5017978;28;19917;-41
2023/05/02 11:37:12;;;;;;;;;;;;;;;13.18;100.00;101442.16;5018533;28;19924;-41
2023/05/02 11:39:38;;;;;;;;;;;;;;;12.13;100.00;101323.50;5018435;28;19960;-41
2023/05/02 11:42:03;;;;;;;;;;;;;;;11.92;100.00;101314.03;5017066;28;20009;-41
2023/05/02 11:44:28;;;;;;;;;;;;;;;11.99;100.00;101332.97;5018435;28;19964;-41
2023/05/02 11:46:53;;;;;;;;;;;;;;;11.33;100.00;101306.22;5015946;28;19961;-41
2023/05/02 11:49:19;;;;;;;;;;;;;;;11.72;100.00;101375.97;5016625;28;19966;-41
2023/05/02 11:51:44;;;;;;;;;;;;;;;12.54;100.00;101386.31;5017332;28;19921;-41
2023/05/02 11:54:16;;;;;;;;;;;;;;;11.71;100.00;101286.47;5017182;28;19924;-41
2023/05/02 11:56:41;;;;;;;;;;;;;;;12.26;100.00;101284.72;5018062;28;19940;-41
2023/05/02 11:59:07;;;;;;;;;;;;;;;11.51;100.00;101231.41;5018280;28;20386;-41
2023/05/02 12:01:32;;;;;;;;;;;;;;;12.19;100.00;101272.69;5017556;28;19928;-41
2023/05/02 12:04:06;;;;;;;;;;;;;;;12.92;100.00;101261.22;5017138;28;19921;-41
2023/05/02 12:06:32;;;;;;;;;;;;;;;13.11;100.00;101221.44;5014165;28;19915;-41
2023/05/02 12:09:11;;;;;;;;;;;;;;;13.70;100.00;101126.03;5018241;28;19928;-41
2023/05/02 12:11:37;;;;;;;;;;;;;;;13.72;100.00;101046.59;5016158;28;20374;-41
2023/05/02 12:14:02;;;;;;;;;;;;;;;14.61;100.00;101032.44;5017676;28;19917;-41
2023/05/02 12:16:28;;;;;;;;;;;;;;;14.45;100.00;100880.56;5017991;28;19921;-41
2023/05/02 12:18:55;;;;;;;;;;;;;;;12.93;100.00;100733.66;5015282;28;20565;-41
2023/05/02 12:21:20;;;;;;;;;;;;;;;13.15;100.00;100785.91;5017672;28;20417;-42
2023/05/02 12:23:46;;;;;;;;;;;;;;;13.19;100.00;100758.28;5017189;28;19948;-41
2023/05/02 12:26:23;;;;;;;;;;;;;;;13.92;100.00;100735.56;5015421;28;19920;-41
2023/05/02 12:28:49;;;;;;;;;;;;;;;14.11;100.00;100740.38;5017231;28;19971;-41
2023/05/02 12:31:15;;;;;;;;;;;;;;;14.33;100.00;100683.81;5012201;28;19929;-41